sensor_id;sensor_type;location;lat;lon;timestamp;temperature;humidity
70145;DHT22;57510;51.068;3.872;2022-08-19T00:02:12;19.60;92.70
70145;DHT22;57510;51.068;3.872;2022-08-19T00:12:42;19.50;92.60
70145;DHT22;57510;51.068;3.872;2022-08-19T00:17:55;19.50;92.60
70145;DHT22;57510;51.068;3.872;2022-08-19T00:20:30;19.40;92.50
70145;DHT22;57510;51.068;3.872;2022-08-19T00:23:11;19.40;92.50
70145;DHT22;57510;51.068;3.872;2022-08-19T00:46:32;19.10;93.00
70145;DHT22;57510;51.068;3.872;2022-08-19T00:51:48;19.10;93.00
70145;DHT22;57510;51.068;3.872;2022-08-19T01:09:01;18.90;93.20
70145;DHT22;57510;51.068;3.872;2022-08-19T01:14:39;18.90;93.20
70145;DHT22;57510;51.068;3.872;2022-08-19T01:36:50;18.70;93.50
70145;DHT22;57510;51.068;3.872;2022-08-19T01:39:25;18.70;93.40
70145;DHT22;57510;51.068;3.872;2022-08-19T01:56:02;18.30;93.40
70145;DHT22;57510;51.068;3.872;2022-08-19T01:58:38;18.30;93.50
70145;DHT22;57510;51.068;3.872;2022-08-19T02:01:13;18.30;93.70
70145;DHT22;57510;51.068;3.872;2022-08-19T02:21:49;18.10;93.90
70145;DHT22;57510;51.068;3.872;2022-08-19T02:50:32;18.00;94.20
70145;DHT22;57510;51.068;3.872;2022-08-19T02:56:00;18.00;94.20
70145;DHT22;57510;51.068;3.872;2022-08-19T03:04:28;17.90;94.30
70145;DHT22;57510;51.068;3.872;2022-08-19T03:10:05;17.90;94.40
70145;DHT22;57510;51.068;3.872;2022-08-19T03:12:43;17.90;94.40
70145;DHT22;57510;51.068;3.872;2022-08-19T03:15:16;17.90;94.40
70145;DHT22;57510;51.068;3.872;2022-08-19T03:20:31;18.00;94.30
70145;DHT22;57510;51.068;3.872;2022-08-19T03:25:43;18.00;94.30
70145;DHT22;57510;51.068;3.872;2022-08-19T03:28:20;18.10;94.30
70145;DHT22;57510;51.068;3.872;2022-08-19T03:30:58;18.10;94.30
70145;DHT22;57510;51.068;3.872;2022-08-19T03:33:37;18.10;94.20
70145;DHT22;57510;51.068;3.872;2022-08-19T03:41:50;18.20;94.10
70145;DHT22;57510;51.068;3.872;2022-08-19T03:44:18;18.20;94.10
70145;DHT22;57510;51.068;3.872;2022-08-19T03:47:01;18.10;94.10
70145;DHT22;57510;51.068;3.872;2022-08-19T03:49:29;18.10;94.00
70145;DHT22;57510;51.068;3.872;2022-08-19T03:54:41;18.00;94.10
70145;DHT22;57510;51.068;3.872;2022-08-19T03:59:47;18.00;94.20
70145;DHT22;57510;51.068;3.872;2022-08-19T04:02:15;17.90;94.10
70145;DHT22;57510;51.068;3.872;2022-08-19T04:19:10;17.70;94.30
70145;DHT22;57510;51.068;3.872;2022-08-19T04:21:48;17.70;94.40
70145;DHT22;57510;51.068;3.872;2022-08-19T04:27:28;17.70;94.40
70145;DHT22;57510;51.068;3.872;2022-08-19T04:29:55;17.70;94.40
70145;DHT22;57510;51.068;3.872;2022-08-19T04:41:45;17.60;94.40
70145;DHT22;57510;51.068;3.872;2022-08-19T04:47:42;17.50;94.40
70145;DHT22;57510;51.068;3.872;2022-08-19T04:58:10;17.60;94.50
70145;DHT22;57510;51.068;3.872;2022-08-19T05:07:04;17.70;94.60
70145;DHT22;57510;51.068;3.872;2022-08-19T05:12:17;17.80;94.60
70145;DHT22;57510;51.068;3.872;2022-08-19T05:14:46;17.80;94.70
70145;DHT22;57510;51.068;3.872;2022-08-19T05:17:25;17.90;94.70
70145;DHT22;57510;51.068;3.872;2022-08-19T05:20:01;17.90;94.70
70145;DHT22;57510;51.068;3.872;2022-08-19T05:22:54;18.00;94.60
70145;DHT22;57510;51.068;3.872;2022-08-19T05:28:10;18.10;94.50
70145;DHT22;57510;51.068;3.872;2022-08-19T05:30:44;18.10;94.50
70145;DHT22;57510;51.068;3.872;2022-08-19T05:33:11;18.20;94.50
70145;DHT22;57510;51.068;3.872;2022-08-19T05:35:41;18.30;94.60
70145;DHT22;57510;51.068;3.872;2022-08-19T05:38:08;18.30;94.50
70145;DHT22;57510;51.068;3.872;2022-08-19T05:40:41;18.30;94.50
70145;DHT22;57510;51.068;3.872;2022-08-19T05:43:17;18.50;94.60
70145;DHT22;57510;51.068;3.872;2022-08-19T05:45:51;18.60;94.50
70145;DHT22;57510;51.068;3.872;2022-08-19T05:48:16;18.70;94.40
70145;DHT22;57510;51.068;3.872;2022-08-19T05:50:55;18.90;94.40
70145;DHT22;57510;51.068;3.872;2022-08-19T05:53:36;19.00;94.30
70145;DHT22;57510;51.068;3.872;2022-08-19T05:56:06;19.20;94.30
70145;DHT22;57510;51.068;3.872;2022-08-19T05:58:35;19.30;94.10
70145;DHT22;57510;51.068;3.872;2022-08-19T06:01:04;19.50;94.10
70145;DHT22;57510;51.068;3.872;2022-08-19T06:03:42;19.60;93.90
70145;DHT22;57510;51.068;3.872;2022-08-19T06:06:09;19.70;93.80
70145;DHT22;57510;51.068;3.872;2022-08-19T06:14:16;20.10;93.60
70145;DHT22;57510;51.068;3.872;2022-08-19T06:16:48;20.20;93.50
70145;DHT22;57510;51.068;3.872;2022-08-19T06:19:23;20.40;93.40
70145;DHT22;57510;51.068;3.872;2022-08-19T06:22:00;20.50;93.30
70145;DHT22;57510;51.068;3.872;2022-08-19T06:27:00;20.60;93.20
70145;DHT22;57510;51.068;3.872;2022-08-19T06:29:26;20.50;93.20
70145;DHT22;57510;51.068;3.872;2022-08-19T06:31:56;20.70;93.20
70145;DHT22;57510;51.068;3.872;2022-08-19T06:36:54;21.00;92.90
70145;DHT22;57510;51.068;3.872;2022-08-19T06:39:37;21.10;92.50
70145;DHT22;57510;51.068;3.872;2022-08-19T06:42:05;21.10;92.50
70145;DHT22;57510;51.068;3.872;2022-08-19T06:44:35;21.20;92.60
70145;DHT22;57510;51.068;3.872;2022-08-19T06:47:03;21.30;92.40
70145;DHT22;57510;51.068;3.872;2022-08-19T06:49:29;21.40;92.20
70145;DHT22;57510;51.068;3.872;2022-08-19T06:51:57;21.50;92.00
70145;DHT22;57510;51.068;3.872;2022-08-19T06:54:23;21.50;91.90
70145;DHT22;57510;51.068;3.872;2022-08-19T06:56:51;21.40;92.00
70145;DHT22;57510;51.068;3.872;2022-08-19T07:01:55;21.90;91.90
70145;DHT22;57510;51.068;3.872;2022-08-19T07:04:28;22.00;91.40
70145;DHT22;57510;51.068;3.872;2022-08-19T07:07:03;21.90;91.30
70145;DHT22;57510;51.068;3.872;2022-08-19T07:09:42;21.90;91.40
70145;DHT22;57510;51.068;3.872;2022-08-19T07:12:12;22.00;91.30
70145;DHT22;57510;51.068;3.872;2022-08-19T07:17:31;22.20;91.20
70145;DHT22;57510;51.068;3.872;2022-08-19T07:19:58;22.20;91.00
70145;DHT22;57510;51.068;3.872;2022-08-19T07:22:23;22.10;91.10
70145;DHT22;57510;51.068;3.872;2022-08-19T07:24:50;22.10;91.00
70145;DHT22;57510;51.068;3.872;2022-08-19T07:27:16;22.20;90.90
70145;DHT22;57510;51.068;3.872;2022-08-19T07:29:42;22.20;90.90
70145;DHT22;57510;51.068;3.872;2022-08-19T07:32:08;22.20;91.00
70145;DHT22;57510;51.068;3.872;2022-08-19T07:37:14;22.20;91.00
70145;DHT22;57510;51.068;3.872;2022-08-19T07:39:40;22.30;90.90
70145;DHT22;57510;51.068;3.872;2022-08-19T07:42:10;22.60;90.80
70145;DHT22;57510;51.068;3.872;2022-08-19T07:44:36;22.50;90.80
70145;DHT22;57510;51.068;3.872;2022-08-19T07:47:04;22.70;90.70
70145;DHT22;57510;51.068;3.872;2022-08-19T07:49:31;22.70;90.40
70145;DHT22;57510;51.068;3.872;2022-08-19T07:52:02;22.70;90.60
70145;DHT22;57510;51.068;3.872;2022-08-19T07:54:29;22.50;90.60
70145;DHT22;57510;51.068;3.872;2022-08-19T07:56:55;22.50;90.60
70145;DHT22;57510;51.068;3.872;2022-08-19T07:59:36;22.70;90.70
70145;DHT22;57510;51.068;3.872;2022-08-19T08:02:05;22.80;90.60
70145;DHT22;57510;51.068;3.872;2022-08-19T08:07:32;22.90;90.50
70145;DHT22;57510;51.068;3.872;2022-08-19T08:10:16;22.90;90.60
70145;DHT22;57510;51.068;3.872;2022-08-19T08:12:41;23.20;90.40
70145;DHT22;57510;51.068;3.872;2022-08-19T08:15:10;23.30;90.00
70145;DHT22;57510;51.068;3.872;2022-08-19T08:17:42;23.30;90.10
70145;DHT22;57510;51.068;3.872;2022-08-19T08:22:47;23.40;89.80
70145;DHT22;57510;51.068;3.872;2022-08-19T08:28:01;23.50;89.40
70145;DHT22;57510;51.068;3.872;2022-08-19T08:30:28;23.50;89.50
70145;DHT22;57510;51.068;3.872;2022-08-19T08:32:55;23.40;89.50
70145;DHT22;57510;51.068;3.872;2022-08-19T08:35:22;23.40;89.30
70145;DHT22;57510;51.068;3.872;2022-08-19T08:37:51;23.30;89.80
70145;DHT22;57510;51.068;3.872;2022-08-19T08:51:29;22.80;90.50
70145;DHT22;57510;51.068;3.872;2022-08-19T08:56:38;22.90;90.60
70145;DHT22;57510;51.068;3.872;2022-08-19T08:59:06;22.70;90.70
70145;DHT22;57510;51.068;3.872;2022-08-19T09:04:37;22.90;90.60
70145;DHT22;57510;51.068;3.872;2022-08-19T09:09:50;23.40;90.20
70145;DHT22;57510;51.068;3.872;2022-08-19T09:12:28;23.60;89.80
70145;DHT22;57510;51.068;3.872;2022-08-19T09:14:57;23.60;89.40
70145;DHT22;57510;51.068;3.872;2022-08-19T09:17:37;23.90;89.00
70145;DHT22;57510;51.068;3.872;2022-08-19T09:20:18;23.80;88.40
70145;DHT22;57510;51.068;3.872;2022-08-19T09:22:43;23.90;88.30
70145;DHT22;57510;51.068;3.872;2022-08-19T09:25:10;23.70;88.50
70145;DHT22;57510;51.068;3.872;2022-08-19T09:27:43;23.80;88.40
70145;DHT22;57510;51.068;3.872;2022-08-19T09:30:20;23.70;88.80
70145;DHT22;57510;51.068;3.872;2022-08-19T09:32:52;23.60;88.80
70145;DHT22;57510;51.068;3.872;2022-08-19T09:41:07;23.70;88.80
70145;DHT22;57510;51.068;3.872;2022-08-19T09:43:33;23.70;88.60
70145;DHT22;57510;51.068;3.872;2022-08-19T09:46:14;23.80;88.50
70145;DHT22;57510;51.068;3.872;2022-08-19T09:48:50;23.70;88.70
70145;DHT22;57510;51.068;3.872;2022-08-19T09:51:18;23.80;89.10
70145;DHT22;57510;51.068;3.872;2022-08-19T09:53:59;23.90;89.00
70145;DHT22;57510;51.068;3.872;2022-08-19T09:56:38;24.50;88.50
70145;DHT22;57510;51.068;3.872;2022-08-19T09:59:13;25.20;86.90
70145;DHT22;57510;51.068;3.872;2022-08-19T10:01:46;25.50;85.00
70145;DHT22;57510;51.068;3.872;2022-08-19T10:04:27;25.90;84.10
70145;DHT22;57510;51.068;3.872;2022-08-19T10:07:12;25.90;84.20
70145;DHT22;57510;51.068;3.872;2022-08-19T10:09:38;26.10;83.40
70145;DHT22;57510;51.068;3.872;2022-08-19T10:12:06;26.30;82.30
70145;DHT22;57510;51.068;3.872;2022-08-19T10:17:09;26.10;81.70
70145;DHT22;57510;51.068;3.872;2022-08-19T10:19:34;26.20;82.10
70145;DHT22;57510;51.068;3.872;2022-08-19T10:22:12;26.40;81.70
70145;DHT22;57510;51.068;3.872;2022-08-19T10:24:46;26.50;81.20
70145;DHT22;57510;51.068;3.872;2022-08-19T10:27:18;26.40;80.80
70145;DHT22;57510;51.068;3.872;2022-08-19T10:29:51;26.60;80.70
70145;DHT22;57510;51.068;3.872;2022-08-19T10:32:17;26.50;80.60
70145;DHT22;57510;51.068;3.872;2022-08-19T10:34:49;26.20;80.50
70145;DHT22;57510;51.068;3.872;2022-08-19T10:37:17;26.10;80.90
70145;DHT22;57510;51.068;3.872;2022-08-19T10:39:47;26.20;81.00
70145;DHT22;57510;51.068;3.872;2022-08-19T10:42:17;26.10;80.90
70145;DHT22;57510;51.068;3.872;2022-08-19T10:44:44;26.10;81.10
70145;DHT22;57510;51.068;3.872;2022-08-19T10:47:20;25.90;81.20
70145;DHT22;57510;51.068;3.872;2022-08-19T10:49:48;25.90;81.60
70145;DHT22;57510;51.068;3.872;2022-08-19T10:52:32;26.40;81.40
70145;DHT22;57510;51.068;3.872;2022-08-19T10:55:06;26.70;80.50
70145;DHT22;57510;51.068;3.872;2022-08-19T10:57:50;26.80;79.10
70145;DHT22;57510;51.068;3.872;2022-08-19T11:00:17;27.00;79.20
70145;DHT22;57510;51.068;3.872;2022-08-19T11:02:44;27.30;78.40
70145;DHT22;57510;51.068;3.872;2022-08-19T11:05:10;27.60;77.60
70145;DHT22;57510;51.068;3.872;2022-08-19T11:13:52;27.50;77.60
70145;DHT22;57510;51.068;3.872;2022-08-19T11:16:22;27.20;77.20
70145;DHT22;57510;51.068;3.872;2022-08-19T11:18:56;27.10;78.00
70145;DHT22;57510;51.068;3.872;2022-08-19T11:21:40;26.70;78.80
70145;DHT22;57510;51.068;3.872;2022-08-19T11:24:07;26.40;79.00
70145;DHT22;57510;51.068;3.872;2022-08-19T11:26:34;26.30;79.80
70145;DHT22;57510;51.068;3.872;2022-08-19T11:29:00;26.20;79.40
70145;DHT22;57510;51.068;3.872;2022-08-19T11:31:39;26.40;79.80
70145;DHT22;57510;51.068;3.872;2022-08-19T11:34:13;26.40;79.60
70145;DHT22;57510;51.068;3.872;2022-08-19T11:39:36;27.10;77.90
70145;DHT22;57510;51.068;3.872;2022-08-19T11:42:05;27.40;77.00
70145;DHT22;57510;51.068;3.872;2022-08-19T11:44:54;27.60;76.30
70145;DHT22;57510;51.068;3.872;2022-08-19T11:47:20;27.90;75.90
70145;DHT22;57510;51.068;3.872;2022-08-19T11:49:57;28.10;76.00
70145;DHT22;57510;51.068;3.872;2022-08-19T11:52:23;27.80;75.50
70145;DHT22;57510;51.068;3.872;2022-08-19T11:54:57;27.60;76.20
70145;DHT22;57510;51.068;3.872;2022-08-19T11:57:25;27.80;75.80
70145;DHT22;57510;51.068;3.872;2022-08-19T11:59:51;27.70;75.50
70145;DHT22;57510;51.068;3.872;2022-08-19T12:02:18;27.50;75.30
70145;DHT22;57510;51.068;3.872;2022-08-19T12:04:47;27.70;75.90
70145;DHT22;57510;51.068;3.872;2022-08-19T12:07:13;27.80;75.60
70145;DHT22;57510;51.068;3.872;2022-08-19T12:09:57;28.10;75.20
70145;DHT22;57510;51.068;3.872;2022-08-19T12:12:22;28.60;75.00
70145;DHT22;57510;51.068;3.872;2022-08-19T12:14:50;29.00;73.80
70145;DHT22;57510;51.068;3.872;2022-08-19T12:20:02;29.20;72.20
70145;DHT22;57510;51.068;3.872;2022-08-19T12:22:27;29.10;72.30
70145;DHT22;57510;51.068;3.872;2022-08-19T12:24:58;28.80;72.90
70145;DHT22;57510;51.068;3.872;2022-08-19T12:27:25;28.90;73.00
70145;DHT22;57510;51.068;3.872;2022-08-19T12:29:51;29.00;72.50
70145;DHT22;57510;51.068;3.872;2022-08-19T12:32:16;29.00;72.00
70145;DHT22;57510;51.068;3.872;2022-08-19T12:34:42;28.90;71.20
70145;DHT22;57510;51.068;3.872;2022-08-19T12:37:08;28.80;71.80
70145;DHT22;57510;51.068;3.872;2022-08-19T12:44:48;29.20;72.20
70145;DHT22;57510;51.068;3.872;2022-08-19T12:47:14;29.10;72.20
70145;DHT22;57510;51.068;3.872;2022-08-19T12:49:43;29.20;71.20
70145;DHT22;57510;51.068;3.872;2022-08-19T12:52:09;29.20;70.50
70145;DHT22;57510;51.068;3.872;2022-08-19T12:54:41;29.20;70.80
70145;DHT22;57510;51.068;3.872;2022-08-19T12:57:08;29.10;70.80
70145;DHT22;57510;51.068;3.872;2022-08-19T12:59:42;29.10;71.20
70145;DHT22;57510;51.068;3.872;2022-08-19T13:02:09;29.10;71.80
70145;DHT22;57510;51.068;3.872;2022-08-19T13:04:35;28.80;72.00
70145;DHT22;57510;51.068;3.872;2022-08-19T13:07:03;28.60;72.50
70145;DHT22;57510;51.068;3.872;2022-08-19T13:09:32;28.10;73.20
70145;DHT22;57510;51.068;3.872;2022-08-19T13:12:01;27.70;74.50
70145;DHT22;57510;51.068;3.872;2022-08-19T13:14:40;27.60;75.50
70145;DHT22;57510;51.068;3.872;2022-08-19T13:17:14;27.60;75.60
70145;DHT22;57510;51.068;3.872;2022-08-19T13:19:40;27.70;76.10
70145;DHT22;57510;51.068;3.872;2022-08-19T13:22:17;27.90;74.90
70145;DHT22;57510;51.068;3.872;2022-08-19T13:25:00;28.20;74.40
70145;DHT22;57510;51.068;3.872;2022-08-19T13:32:57;29.50;72.20
70145;DHT22;57510;51.068;3.872;2022-08-19T13:38:12;29.00;71.50
70145;DHT22;57510;51.068;3.872;2022-08-19T13:40:39;28.40;73.90
70145;DHT22;57510;51.068;3.872;2022-08-19T13:46:00;25.50;90.50
70145;DHT22;57510;51.068;3.872;2022-08-19T13:48:33;24.50;92.80
70145;DHT22;57510;51.068;3.872;2022-08-19T13:51:04;24.00;94.30
70145;DHT22;57510;51.068;3.872;2022-08-19T13:53:46;23.80;95.60
70145;DHT22;57510;51.068;3.872;2022-08-19T13:59:01;23.60;96.30
70145;DHT22;57510;51.068;3.872;2022-08-19T14:01:27;23.50;96.90
70145;DHT22;57510;51.068;3.872;2022-08-19T14:03:53;23.40;97.30
70145;DHT22;57510;51.068;3.872;2022-08-19T14:09:39;23.60;97.70
70145;DHT22;57510;51.068;3.872;2022-08-19T14:12:05;23.60;97.60
70145;DHT22;57510;51.068;3.872;2022-08-19T14:14:35;23.60;97.60
70145;DHT22;57510;51.068;3.872;2022-08-19T14:17:12;23.70;97.60
70145;DHT22;57510;51.068;3.872;2022-08-19T14:19:39;23.70;97.70
70145;DHT22;57510;51.068;3.872;2022-08-19T14:25:09;24.70;98.70
70145;DHT22;57510;51.068;3.872;2022-08-19T14:27:42;25.20;98.80
70145;DHT22;57510;51.068;3.872;2022-08-19T14:30:09;25.40;98.40
70145;DHT22;57510;51.068;3.872;2022-08-19T14:35:12;26.30;99.90
70145;DHT22;57510;51.068;3.872;2022-08-19T14:37:38;26.90;99.90
70145;DHT22;57510;51.068;3.872;2022-08-19T14:40:04;27.40;99.90
70145;DHT22;57510;51.068;3.872;2022-08-19T14:45:12;27.10;95.80
70145;DHT22;57510;51.068;3.872;2022-08-19T14:47:41;26.90;95.70
70145;DHT22;57510;51.068;3.872;2022-08-19T14:50:07;26.70;95.60
70145;DHT22;57510;51.068;3.872;2022-08-19T14:52:41;26.50;95.70
70145;DHT22;57510;51.068;3.872;2022-08-19T14:55:25;26.50;95.60
70145;DHT22;57510;51.068;3.872;2022-08-19T14:57:51;26.60;95.80
70145;DHT22;57510;51.068;3.872;2022-08-19T15:00:16;27.60;97.70
70145;DHT22;57510;51.068;3.872;2022-08-19T15:02:43;29.40;92.80
70145;DHT22;57510;51.068;3.872;2022-08-19T15:05:12;30.90;91.10
70145;DHT22;57510;51.068;3.872;2022-08-19T15:07:38;32.20;91.10
70145;DHT22;57510;51.068;3.872;2022-08-19T15:10:14;33.30;84.80
70145;DHT22;57510;51.068;3.872;2022-08-19T15:15:27;34.30;82.10
70145;DHT22;57510;51.068;3.872;2022-08-19T15:17:58;34.20;78.10
70145;DHT22;57510;51.068;3.872;2022-08-19T15:20:27;34.50;80.00
70145;DHT22;57510;51.068;3.872;2022-08-19T15:25:25;35.80;77.00
70145;DHT22;57510;51.068;3.872;2022-08-19T15:27:59;36.00;73.80
70145;DHT22;57510;51.068;3.872;2022-08-19T15:30:35;35.50;73.60
70145;DHT22;57510;51.068;3.872;2022-08-19T15:33:00;35.40;71.40
70145;DHT22;57510;51.068;3.872;2022-08-19T15:38:16;34.80;71.30
70145;DHT22;57510;51.068;3.872;2022-08-19T15:40:44;33.50;72.00
70145;DHT22;57510;51.068;3.872;2022-08-19T15:43:10;32.80;76.10
70145;DHT22;57510;51.068;3.872;2022-08-19T15:45:36;33.00;78.20
70145;DHT22;57510;51.068;3.872;2022-08-19T15:48:04;34.20;77.50
70145;DHT22;57510;51.068;3.872;2022-08-19T15:55:57;34.70;71.40
70145;DHT22;57510;51.068;3.872;2022-08-19T15:58:23;33.70;72.20
70145;DHT22;57510;51.068;3.872;2022-08-19T16:01:09;32.80;74.90
70145;DHT22;57510;51.068;3.872;2022-08-19T16:03:54;31.80;76.60
70145;DHT22;57510;51.068;3.872;2022-08-19T16:06:55;31.00;79.10
70145;DHT22;57510;51.068;3.872;2022-08-19T16:09:28;30.40;80.60
70145;DHT22;57510;51.068;3.872;2022-08-19T16:11:55;29.80;81.60
70145;DHT22;57510;51.068;3.872;2022-08-19T16:14:20;29.20;84.50
70145;DHT22;57510;51.068;3.872;2022-08-19T16:16:46;28.80;84.70
70145;DHT22;57510;51.068;3.872;2022-08-19T16:19:13;28.40;88.10
70145;DHT22;57510;51.068;3.872;2022-08-19T16:21:43;28.10;88.70
70145;DHT22;57510;51.068;3.872;2022-08-19T16:24:10;27.90;89.70
70145;DHT22;57510;51.068;3.872;2022-08-19T16:26:37;27.70;90.00
70145;DHT22;57510;51.068;3.872;2022-08-19T16:29:05;27.60;90.10
70145;DHT22;57510;51.068;3.872;2022-08-19T16:31:32;27.40;88.40
70145;DHT22;57510;51.068;3.872;2022-08-19T16:33:58;27.30;87.70
70145;DHT22;57510;51.068;3.872;2022-08-19T16:36:37;27.10;88.40
70145;DHT22;57510;51.068;3.872;2022-08-19T16:39:07;27.00;87.50
70145;DHT22;57510;51.068;3.872;2022-08-19T16:41:33;26.90;88.20
70145;DHT22;57510;51.068;3.872;2022-08-19T16:43:59;26.90;86.50
70145;DHT22;57510;51.068;3.872;2022-08-19T16:46:39;26.80;87.40
70145;DHT22;57510;51.068;3.872;2022-08-19T16:49:09;26.70;87.30
70145;DHT22;57510;51.068;3.872;2022-08-19T16:51:36;26.70;87.30
70145;DHT22;57510;51.068;3.872;2022-08-19T16:54:04;26.80;87.70
70145;DHT22;57510;51.068;3.872;2022-08-19T16:56:30;27.00;86.40
70145;DHT22;57510;51.068;3.872;2022-08-19T16:58:55;26.90;85.30
70145;DHT22;57510;51.068;3.872;2022-08-19T17:01:26;26.80;85.40
70145;DHT22;57510;51.068;3.872;2022-08-19T17:03:53;26.40;84.70
70145;DHT22;57510;51.068;3.872;2022-08-19T17:09:05;26.10;85.50
70145;DHT22;57510;51.068;3.872;2022-08-19T17:11:30;25.90;85.40
70145;DHT22;57510;51.068;3.872;2022-08-19T17:16:51;25.60;86.40
70145;DHT22;57510;51.068;3.872;2022-08-19T17:19:17;25.60;87.70
70145;DHT22;57510;51.068;3.872;2022-08-19T17:21:44;25.60;88.00
70145;DHT22;57510;51.068;3.872;2022-08-19T17:24:16;25.60;87.90
70145;DHT22;57510;51.068;3.872;2022-08-19T17:26:45;25.60;87.40
70145;DHT22;57510;51.068;3.872;2022-08-19T17:29:12;25.50;88.90
70145;DHT22;57510;51.068;3.872;2022-08-19T17:31:38;25.40;88.30
70145;DHT22;57510;51.068;3.872;2022-08-19T17:34:09;25.40;89.70
70145;DHT22;57510;51.068;3.872;2022-08-19T17:36:39;25.30;89.30
70145;DHT22;57510;51.068;3.872;2022-08-19T17:39:05;25.20;88.20
70145;DHT22;57510;51.068;3.872;2022-08-19T17:41:31;25.20;90.10
70145;DHT22;57510;51.068;3.872;2022-08-19T17:46:29;25.20;90.60
70145;DHT22;57510;51.068;3.872;2022-08-19T17:49:13;25.20;91.30
70145;DHT22;57510;51.068;3.872;2022-08-19T17:51:43;25.20;91.70
70145;DHT22;57510;51.068;3.872;2022-08-19T17:54:11;25.10;92.00
70145;DHT22;57510;51.068;3.872;2022-08-19T17:56:38;25.00;92.10
70145;DHT22;57510;51.068;3.872;2022-08-19T17:59:04;25.00;92.00
70145;DHT22;57510;51.068;3.872;2022-08-19T18:04:16;24.90;91.90
70145;DHT22;57510;51.068;3.872;2022-08-19T18:06:42;24.80;91.90
70145;DHT22;57510;51.068;3.872;2022-08-19T18:09:08;24.80;92.00
70145;DHT22;57510;51.068;3.872;2022-08-19T18:11:40;24.70;91.90
70145;DHT22;57510;51.068;3.872;2022-08-19T18:14:14;24.60;92.20
70145;DHT22;57510;51.068;3.872;2022-08-19T18:16:39;24.60;92.00
70145;DHT22;57510;51.068;3.872;2022-08-19T18:19:05;24.50;92.20
70145;DHT22;57510;51.068;3.872;2022-08-19T18:21:43;24.50;91.90
70145;DHT22;57510;51.068;3.872;2022-08-19T18:24:11;24.40;92.10
70145;DHT22;57510;51.068;3.872;2022-08-19T18:26:37;24.40;92.40
70145;DHT22;57510;51.068;3.872;2022-08-19T18:29:03;24.30;92.60
70145;DHT22;57510;51.068;3.872;2022-08-19T18:31:43;24.30;92.60
70145;DHT22;57510;51.068;3.872;2022-08-19T18:34:09;24.20;92.40
70145;DHT22;57510;51.068;3.872;2022-08-19T18:36:42;24.20;92.60
70145;DHT22;57510;51.068;3.872;2022-08-19T18:39:07;24.10;92.60
70145;DHT22;57510;51.068;3.872;2022-08-19T18:44:38;24.10;92.90
70145;DHT22;57510;51.068;3.872;2022-08-19T18:47:23;24.00;92.30
70145;DHT22;57510;51.068;3.872;2022-08-19T18:50:07;24.00;92.50
70145;DHT22;57510;51.068;3.872;2022-08-19T18:52:38;23.80;92.00
70145;DHT22;57510;51.068;3.872;2022-08-19T18:55:07;23.70;91.40
70145;DHT22;57510;51.068;3.872;2022-08-19T18:57:32;23.70;91.70
70145;DHT22;57510;51.068;3.872;2022-08-19T18:59:58;23.70;91.70
70145;DHT22;57510;51.068;3.872;2022-08-19T19:02:36;23.50;91.50
70145;DHT22;57510;51.068;3.872;2022-08-19T19:05:03;23.50;91.70
70145;DHT22;57510;51.068;3.872;2022-08-19T19:07:33;23.50;91.50
70145;DHT22;57510;51.068;3.872;2022-08-19T19:09:59;23.30;91.90
70145;DHT22;57510;51.068;3.872;2022-08-19T19:12:32;23.10;91.90
70145;DHT22;57510;51.068;3.872;2022-08-19T19:15:00;23.00;91.80
70145;DHT22;57510;51.068;3.872;2022-08-19T19:17:30;22.90;92.40
70145;DHT22;57510;51.068;3.872;2022-08-19T19:20:04;22.80;92.80
70145;DHT22;57510;51.068;3.872;2022-08-19T19:22:31;22.70;93.00
70145;DHT22;57510;51.068;3.872;2022-08-19T19:24:58;22.50;93.60
70145;DHT22;57510;51.068;3.872;2022-08-19T19:27:29;22.40;94.20
70145;DHT22;57510;51.068;3.872;2022-08-19T19:29:54;22.30;94.20
70145;DHT22;57510;51.068;3.872;2022-08-19T19:32:25;22.20;94.00
70145;DHT22;57510;51.068;3.872;2022-08-19T19:34:52;22.20;93.90
70145;DHT22;57510;51.068;3.872;2022-08-19T19:37:18;22.20;93.90
70145;DHT22;57510;51.068;3.872;2022-08-19T19:39:43;22.30;94.00
70145;DHT22;57510;51.068;3.872;2022-08-19T19:42:12;22.20;94.00
70145;DHT22;57510;51.068;3.872;2022-08-19T19:47:12;22.20;94.10
70145;DHT22;57510;51.068;3.872;2022-08-19T19:49:39;22.20;94.30
70145;DHT22;57510;51.068;3.872;2022-08-19T19:52:06;22.10;94.20
70145;DHT22;57510;51.068;3.872;2022-08-19T19:54:34;22.10;94.20
70145;DHT22;57510;51.068;3.872;2022-08-19T19:57:00;22.10;94.20
70145;DHT22;57510;51.068;3.872;2022-08-19T19:59:26;22.00;94.30
70145;DHT22;57510;51.068;3.872;2022-08-19T20:01:51;22.00;94.40
70145;DHT22;57510;51.068;3.872;2022-08-19T20:04:17;22.00;94.50
70145;DHT22;57510;51.068;3.872;2022-08-19T20:06:45;22.00;94.60
70145;DHT22;57510;51.068;3.872;2022-08-19T20:09:12;22.00;94.60
70145;DHT22;57510;51.068;3.872;2022-08-19T20:11:47;22.00;94.60
70145;DHT22;57510;51.068;3.872;2022-08-19T20:14:15;21.90;94.90
70145;DHT22;57510;51.068;3.872;2022-08-19T20:16:42;21.90;94.90
70145;DHT22;57510;51.068;3.872;2022-08-19T20:19:09;21.80;94.90
70145;DHT22;57510;51.068;3.872;2022-08-19T20:21:35;21.80;95.00
70145;DHT22;57510;51.068;3.872;2022-08-19T20:24:05;21.70;95.00
70145;DHT22;57510;51.068;3.872;2022-08-19T20:26:36;21.60;94.90
70145;DHT22;57510;51.068;3.872;2022-08-19T20:29:02;21.60;95.00
70145;DHT22;57510;51.068;3.872;2022-08-19T20:31:28;21.50;95.00
70145;DHT22;57510;51.068;3.872;2022-08-19T20:33:54;21.50;95.10
70145;DHT22;57510;51.068;3.872;2022-08-19T20:36:20;21.40;95.20
70145;DHT22;57510;51.068;3.872;2022-08-19T20:38:46;21.30;95.40
70145;DHT22;57510;51.068;3.872;2022-08-19T20:41:15;21.30;95.60
70145;DHT22;57510;51.068;3.872;2022-08-19T20:43:42;21.20;95.40
70145;DHT22;57510;51.068;3.872;2022-08-19T20:46:11;21.20;95.40
70145;DHT22;57510;51.068;3.872;2022-08-19T20:48:41;21.20;95.40
70145;DHT22;57510;51.068;3.872;2022-08-19T20:51:07;21.30;95.50
70145;DHT22;57510;51.068;3.872;2022-08-19T20:53:40;21.30;95.30
70145;DHT22;57510;51.068;3.872;2022-08-19T20:56:08;21.30;95.10
70145;DHT22;57510;51.068;3.872;2022-08-19T20:58:35;21.30;95.00
70145;DHT22;57510;51.068;3.872;2022-08-19T21:01:05;21.40;95.00
70145;DHT22;57510;51.068;3.872;2022-08-19T21:03:33;21.40;95.00
70145;DHT22;57510;51.068;3.872;2022-08-19T21:06:09;21.50;95.00
70145;DHT22;57510;51.068;3.872;2022-08-19T21:08:36;21.60;95.00
70145;DHT22;57510;51.068;3.872;2022-08-19T21:11:03;21.50;94.70
70145;DHT22;57510;51.068;3.872;2022-08-19T21:13:35;21.60;94.70
70145;DHT22;57510;51.068;3.872;2022-08-19T21:16:00;21.60;94.60
70145;DHT22;57510;51.068;3.872;2022-08-19T21:18:28;21.70;94.70
70145;DHT22;57510;51.068;3.872;2022-08-19T21:23:42;21.60;94.50
70145;DHT22;57510;51.068;3.872;2022-08-19T21:26:08;21.60;94.60
70145;DHT22;57510;51.068;3.872;2022-08-19T21:28:34;21.50;94.60